createdAt,value
2023-01-12T00:02:05.239Z,2.27
2023-01-12T00:04:34.955Z,2.27
2023-01-12T00:07:03.234Z,1.80
2023-01-12T00:09:31.480Z,2.53
2023-01-12T00:11:59.662Z,2.10
2023-01-12T00:14:29.375Z,2.10
2023-01-12T00:16:57.778Z,2.10
2023-01-12T00:19:26.031Z,1.90
2023-01-12T00:21:59.393Z,1.87
2023-01-12T00:24:28.467Z,1.90
2023-01-12T00:26:57.206Z,1.93
2023-01-12T00:29:25.974Z,1.67
2023-01-12T00:31:55.971Z,1.20
2023-01-12T00:34:24.528Z,1.70
2023-01-12T00:36:53.076Z,2.60
2023-01-12T00:39:21.609Z,2.30
2023-01-12T00:42:07.705Z,2.10
2023-01-12T00:44:53.680Z,2.03
2023-01-12T00:47:23.272Z,2.73
2023-01-12T00:49:51.721Z,2.67
2023-01-12T00:52:30.280Z,2.67
2023-01-12T00:54:59.761Z,2.03
2023-01-12T00:57:28.283Z,2.03
2023-01-12T00:59:59.868Z,2.47
2023-01-12T01:02:29.796Z,2.53
2023-01-12T01:04:58.114Z,2.90
2023-01-12T01:07:26.708Z,3.00
2023-01-12T01:09:54.963Z,2.73
2023-01-12T01:12:23.364Z,2.70
2023-01-12T01:14:53.382Z,2.67
2023-01-12T01:17:21.636Z,3.13
2023-01-12T01:19:53.732Z,2.57
2023-01-12T01:22:22.003Z,2.93
2023-01-12T01:24:50.244Z,3.17
2023-01-12T01:27:18.498Z,2.73
2023-01-12T01:29:46.731Z,2.40
2023-01-12T01:32:14.965Z,2.80
2023-01-12T01:34:43.944Z,2.50
2023-01-12T01:37:13.516Z,2.90
2023-01-12T01:39:43.663Z,2.80
2023-01-12T01:42:27.966Z,2.43
2023-01-12T01:44:57.405Z,3.23
2023-01-12T01:47:30.207Z,2.77
2023-01-12T01:50:00.624Z,2.90
2023-01-12T01:52:31.710Z,2.50
2023-01-12T01:55:01.470Z,3.07
2023-01-12T01:57:32.952Z,2.87
2023-01-12T02:00:01.517Z,3.00
2023-01-12T02:02:29.874Z,3.30
2023-01-12T02:04:58.488Z,2.73
2023-01-12T02:07:26.713Z,3.43
2023-01-12T02:09:56.371Z,3.60
2023-01-12T02:12:42.486Z,3.13
2023-01-12T02:15:30.836Z,3.20
2023-01-12T02:18:03.935Z,3.10
2023-01-12T02:20:41.430Z,3.10
2023-01-12T02:23:39.709Z,3.20
2023-01-12T02:26:24.682Z,3.37
2023-01-12T02:29:06.486Z,3.00
2023-01-12T02:31:44.782Z,2.90
2023-01-12T02:34:19.313Z,3.00
2023-01-12T02:36:52.342Z,2.87
2023-01-12T02:39:22.751Z,2.93
2023-01-12T02:42:11.697Z,3.00
2023-01-12T02:44:41.717Z,2.43
2023-01-12T02:47:16.316Z,2.77
2023-01-12T02:49:46.583Z,2.83
2023-01-12T02:52:16.023Z,3.00
2023-01-12T02:54:44.898Z,2.80
2023-01-12T02:57:13.128Z,2.93
2023-01-12T02:59:42.491Z,2.70
2023-01-12T03:02:13.636Z,2.93
2023-01-12T03:04:42.251Z,3.00
2023-01-12T03:07:18.086Z,2.57
2023-01-12T03:09:49.320Z,2.63
2023-01-12T03:12:21.969Z,2.30
2023-01-12T03:14:51.692Z,2.50
2023-01-12T03:17:25.301Z,2.80
2023-01-12T03:19:54.577Z,2.23
2023-01-12T03:22:23.088Z,2.47
2023-01-12T03:24:54.946Z,2.20
2023-01-12T03:27:28.041Z,2.20
2023-01-12T03:30:00.193Z,2.40
2023-01-12T03:32:29.960Z,2.70
2023-01-12T03:34:58.228Z,2.57
2023-01-12T03:37:27.625Z,2.33
2023-01-12T03:39:59.984Z,2.43
2023-01-12T03:42:29.841Z,2.57
2023-01-12T03:45:03.205Z,2.57
2023-01-12T03:47:34.681Z,2.90
2023-01-12T03:50:05.528Z,2.47
2023-01-12T03:52:36.219Z,2.20
2023-01-12T03:55:05.731Z,2.40
2023-01-12T03:57:37.171Z,3.00
2023-01-12T04:00:07.254Z,2.67
2023-01-12T04:02:36.921Z,2.40
2023-01-12T04:05:05.298Z,3.40
2023-01-12T04:07:34.304Z,2.47
2023-01-12T04:10:02.552Z,2.70
2023-01-12T04:12:30.793Z,3.20
2023-01-12T04:14:59.035Z,3.30
2023-01-12T04:17:30.346Z,3.07
2023-01-12T04:19:59.993Z,3.17
2023-01-12T04:22:45.735Z,2.73
2023-01-12T04:25:15.321Z,3.30
2023-01-12T04:27:44.342Z,2.80
2023-01-12T04:30:13.322Z,2.70
2023-01-12T04:32:44.272Z,3.53
2023-01-12T04:35:14.222Z,2.87
2023-01-12T04:37:42.571Z,2.80
2023-01-12T04:40:11.787Z,2.97
2023-01-12T04:42:59.490Z,2.87
2023-01-12T04:46:02.181Z,3.10
2023-01-12T04:48:30.448Z,3.33
2023-01-12T04:51:00.477Z,3.07
2023-01-12T04:53:28.785Z,2.83
2023-01-12T04:55:57.204Z,2.70
2023-01-12T04:58:27.383Z,2.60
2023-01-12T05:00:55.628Z,2.80
2023-01-12T05:03:23.876Z,2.33
2023-01-12T05:05:52.156Z,2.30
2023-01-12T05:08:39.191Z,2.77
2023-01-12T05:11:07.420Z,2.33
2023-01-12T05:13:35.694Z,2.70
2023-01-12T05:16:11.247Z,2.67
2023-01-12T05:18:39.557Z,2.80
2023-01-12T05:21:07.886Z,2.30
2023-01-12T05:23:37.470Z,2.73
2023-01-12T05:26:06.650Z,2.60
2023-01-12T05:28:35.252Z,2.30
2023-01-12T05:31:04.421Z,2.00
2023-01-12T05:33:32.995Z,1.97
2023-01-12T05:36:01.336Z,1.73
2023-01-12T05:38:30.836Z,2.17
2023-01-12T05:41:01.757Z,1.97
2023-01-12T05:43:47.700Z,1.67
2023-01-12T05:46:16.497Z,1.80
2023-01-12T05:48:44.725Z,1.97
2023-01-12T05:51:13.370Z,1.77
2023-01-12T05:53:41.989Z,2.20
2023-01-12T05:56:13.281Z,1.93
2023-01-12T05:58:41.495Z,2.10
2023-01-12T06:01:10.214Z,1.73
2023-01-12T06:03:39.040Z,2.03
2023-01-12T06:06:07.793Z,1.70
2023-01-12T06:08:36.025Z,2.03
2023-01-12T06:11:04.709Z,1.73
2023-01-12T06:13:51.956Z,1.80
2023-01-12T06:16:20.177Z,1.93
2023-01-12T06:18:48.443Z,2.17
2023-01-12T06:21:16.683Z,2.27
2023-01-12T06:23:44.979Z,2.03
2023-01-12T06:26:13.236Z,1.57
2023-01-12T06:28:43.442Z,1.80
2023-01-12T06:31:12.374Z,2.07
2023-01-12T06:33:40.612Z,1.80
2023-01-12T06:36:09.294Z,1.70
2023-01-12T06:38:38.144Z,1.60
2023-01-12T06:41:06.760Z,1.50
2023-01-12T06:43:35.029Z,1.90
2023-01-12T06:46:04.715Z,1.43
2023-01-12T06:48:39.192Z,1.70
2023-01-12T06:51:08.848Z,1.80
2023-01-12T06:53:37.267Z,1.23
2023-01-12T06:56:07.081Z,1.70
2023-01-12T06:58:35.344Z,2.60
2023-01-12T07:01:05.550Z,1.80
2023-01-12T07:03:33.824Z,2.00
2023-01-12T07:06:02.422Z,1.77
2023-01-12T07:08:30.641Z,2.30
2023-01-12T07:11:03.516Z,2.03
2023-01-12T07:13:31.795Z,2.03
2023-01-12T07:16:00.822Z,2.30
2023-01-12T07:18:31.063Z,1.73
2023-01-12T07:20:59.397Z,2.20
2023-01-12T07:23:27.650Z,2.10
2023-01-12T07:25:58.307Z,2.07
2023-01-12T07:28:26.659Z,2.73
2023-01-12T07:30:54.910Z,2.50
2023-01-12T07:33:23.171Z,2.47
2023-01-12T07:35:52.825Z,2.43
2023-01-12T07:38:21.081Z,2.20
2023-01-12T07:40:49.364Z,2.73
2023-01-12T07:43:19.123Z,1.70
2023-01-12T07:45:47.423Z,1.97
2023-01-12T07:48:16.409Z,2.00
2023-01-12T07:50:44.702Z,1.93
2023-01-12T07:53:14.399Z,1.87
2023-01-12T07:55:43.762Z,2.30
2023-01-12T07:58:12.173Z,1.90
2023-01-12T08:00:40.495Z,2.00
2023-01-12T08:03:09.538Z,1.57
2023-01-12T08:05:38.255Z,1.43
2023-01-12T08:08:07.184Z,1.87
2023-01-12T08:10:36.848Z,2.03
2023-01-12T08:13:05.064Z,1.33
2023-01-12T08:15:34.911Z,1.60
2023-01-12T08:18:06.065Z,1.73
2023-01-12T08:20:36.088Z,2.00
2023-01-12T08:23:06.375Z,1.57
2023-01-12T08:25:37.985Z,1.30
2023-01-12T08:28:09.577Z,1.30
2023-01-12T08:30:38.103Z,1.30
2023-01-12T08:33:06.553Z,1.43
2023-01-12T08:35:36.562Z,1.53
2023-01-12T08:38:05.107Z,1.33
2023-01-12T08:40:47.226Z,1.23
2023-01-12T08:43:38.387Z,1.40
2023-01-12T08:46:08.843Z,1.10
2023-01-12T08:48:37.244Z,0.90
2023-01-12T08:51:05.746Z,1.30
2023-01-12T08:53:34.188Z,1.30
2023-01-12T08:56:02.666Z,1.00
2023-01-12T08:58:32.487Z,1.33
2023-01-12T09:01:07.769Z,1.10
2023-01-12T09:03:36.367Z,1.30
2023-01-12T09:06:10.379Z,0.90
2023-01-12T09:08:39.382Z,1.03
2023-01-12T09:11:08.254Z,1.37
2023-01-12T09:13:38.034Z,0.90
2023-01-12T09:16:12.816Z,1.43
2023-01-12T09:18:41.762Z,0.93
2023-01-12T09:21:11.252Z,1.20
2023-01-12T09:23:39.813Z,1.23
2023-01-12T09:26:09.066Z,1.70
2023-01-12T09:28:38.954Z,1.20
2023-01-12T09:31:08.434Z,0.80
2023-01-12T09:33:37.316Z,0.87
2023-01-12T09:36:07.288Z,1.17
2023-01-12T09:38:37.226Z,0.93
2023-01-12T09:41:11.287Z,1.30
2023-01-12T09:43:59.257Z,0.77
2023-01-12T09:46:47.278Z,1.53
2023-01-12T09:49:16.532Z,0.90
2023-01-12T09:51:46.954Z,0.97
2023-01-12T09:54:15.325Z,0.93
2023-01-12T09:56:52.154Z,1.10
2023-01-12T09:59:38.238Z,0.90
2023-01-12T10:02:11.150Z,1.20
2023-01-12T10:04:39.877Z,1.00
2023-01-12T10:07:10.558Z,0.90
2023-01-12T10:09:38.950Z,1.00
2023-01-12T10:12:08.912Z,0.70
2023-01-12T10:14:51.725Z,1.33
2023-01-12T10:17:27.904Z,0.80
2023-01-12T10:20:03.247Z,0.80
2023-01-12T10:22:39.533Z,0.90
2023-01-12T10:25:20.979Z,0.90
2023-01-12T10:27:50.037Z,0.90
2023-01-12T10:30:19.547Z,1.10
2023-01-12T10:32:49.288Z,0.83
2023-01-12T10:35:18.596Z,0.93
2023-01-12T10:37:48.033Z,0.87
2023-01-12T10:40:29.998Z,0.70
2023-01-12T10:43:22.411Z,0.90
2023-01-12T10:46:04.557Z,1.07
2023-01-12T10:48:34.634Z,1.00
2023-01-12T10:51:03.829Z,0.80
2023-01-12T10:53:36.439Z,1.07
2023-01-12T10:56:13.299Z,1.10
2023-01-12T10:58:42.635Z,1.00
2023-01-12T11:01:14.701Z,1.17
2023-01-12T11:03:44.372Z,0.83
2023-01-12T11:06:24.568Z,1.20
2023-01-12T11:08:53.050Z,1.07
2023-01-12T11:11:25.245Z,1.50
2023-01-12T11:13:57.519Z,1.30
2023-01-12T11:16:26.694Z,1.33
2023-01-12T11:19:05.956Z,1.40
2023-01-12T11:21:36.042Z,1.10
2023-01-12T11:24:06.697Z,0.90
2023-01-12T11:26:39.124Z,1.13
2023-01-12T11:29:16.072Z,1.43
2023-01-12T11:31:45.528Z,0.90
2023-01-12T11:34:17.694Z,0.93
2023-01-12T11:36:48.413Z,0.90
2023-01-12T11:39:17.889Z,4.43
2023-01-12T11:42:08.695Z,0.70
2023-01-12T11:44:40.459Z,0.80
2023-01-12T11:47:12.494Z,0.93
2023-01-12T11:49:46.273Z,1.07
2023-01-12T11:52:16.288Z,0.90
2023-01-12T11:54:44.819Z,0.83
2023-01-12T11:57:30.690Z,1.10
2023-01-12T12:00:04.575Z,1.20
2023-01-12T12:02:37.086Z,1.10
2023-01-12T12:05:15.205Z,0.87
2023-01-12T12:07:51.091Z,0.90
2023-01-12T12:10:22.378Z,0.90
2023-01-12T12:13:03.184Z,0.60
2023-01-12T12:15:36.938Z,1.00
2023-01-12T12:18:08.758Z,0.70
2023-01-12T12:20:42.563Z,0.73
2023-01-12T12:23:19.580Z,0.67
2023-01-12T12:25:51.897Z,0.80
2023-01-12T12:28:41.243Z,0.70
2023-01-12T12:31:16.727Z,0.73
2023-01-12T12:33:52.201Z,1.00
2023-01-12T12:36:25.942Z,0.70
2023-01-12T12:39:08.545Z,0.90
2023-01-12T12:41:58.221Z,1.07
2023-01-12T12:44:51.348Z,1.03
2023-01-12T12:47:33.088Z,0.90
2023-01-12T12:50:02.162Z,1.07
2023-01-12T12:52:34.523Z,0.90
2023-01-12T12:55:03.891Z,0.80
2023-01-12T12:57:32.358Z,0.73
2023-01-12T13:00:00.863Z,0.90
2023-01-12T13:02:33.815Z,0.90
2023-01-12T13:05:05.307Z,0.90
2023-01-12T13:07:38.624Z,0.70
2023-01-12T13:10:22.465Z,0.80
2023-01-12T13:13:01.218Z,1.00
2023-01-12T13:15:32.594Z,1.03
2023-01-12T13:18:01.009Z,1.27
2023-01-12T13:20:44.157Z,2.53
2023-01-12T13:23:30.300Z,1.13
2023-01-12T13:25:59.912Z,1.33
2023-01-12T13:28:28.349Z,1.10
2023-01-12T13:30:57.074Z,0.83
2023-01-12T13:33:26.812Z,0.90
2023-01-12T13:36:10.697Z,1.00
2023-01-12T13:38:55.740Z,1.20
2023-01-12T13:41:45.336Z,1.13
2023-01-12T13:44:16.889Z,1.30
2023-01-12T13:46:47.944Z,0.97
2023-01-12T13:49:27.245Z,0.70
2023-01-12T13:51:58.089Z,0.63
2023-01-12T13:54:26.678Z,0.50
2023-01-12T13:56:58.188Z,0.90
2023-01-12T13:59:27.937Z,0.83
2023-01-12T14:01:56.864Z,0.87
2023-01-12T14:04:36.940Z,0.50
2023-01-12T14:07:10.338Z,1.10
2023-01-12T14:09:48.564Z,1.10
2023-01-12T14:12:39.732Z,0.70
2023-01-12T14:15:41.410Z,0.70
2023-01-12T14:18:11.205Z,0.83
2023-01-12T14:20:44.142Z,0.70
2023-01-12T14:23:25.317Z,1.37
2023-01-12T14:26:14.729Z,0.83
2023-01-12T14:28:44.983Z,0.90
2023-01-12T14:31:18.120Z,0.50
2023-01-12T14:33:50.746Z,0.70
2023-01-12T14:36:22.138Z,1.20
2023-01-12T14:38:50.926Z,0.60
2023-01-12T14:41:38.268Z,0.90
2023-01-12T14:44:26.413Z,0.70
2023-01-12T14:46:57.898Z,0.97
2023-01-12T14:49:28.656Z,0.87
2023-01-12T14:51:57.238Z,0.80
2023-01-12T14:54:35.174Z,0.77
2023-01-12T14:57:04.640Z,1.00
2023-01-12T14:59:35.667Z,0.83
2023-01-12T15:02:18.979Z,1.10
2023-01-12T15:04:55.530Z,1.23
2023-01-12T15:07:24.364Z,0.80
2023-01-12T15:09:54.931Z,1.00
2023-01-12T15:12:29.377Z,1.10
2023-01-12T15:15:13.849Z,1.00
2023-01-12T15:17:59.833Z,0.97
2023-01-12T15:20:45.126Z,0.90
2023-01-12T15:23:31.320Z,0.87
2023-01-12T15:28:46.042Z,1.10
2023-01-12T15:31:20.039Z,0.80
2023-01-12T15:33:51.641Z,0.93
2023-01-12T15:36:39.304Z,1.17
2023-01-12T15:39:10.167Z,1.07
2023-01-12T15:41:56.295Z,0.80
2023-01-12T15:44:24.569Z,0.87
2023-01-12T15:46:54.266Z,0.80
2023-01-12T15:49:24.013Z,1.30
2023-01-12T15:51:52.695Z,0.90
2023-01-12T15:54:22.034Z,0.97
2023-01-12T15:56:54.786Z,1.17
2023-01-12T15:59:23.082Z,0.80
2023-01-12T16:01:51.560Z,1.03
2023-01-12T16:04:42.169Z,1.00
2023-01-12T16:07:10.620Z,1.30
2023-01-12T16:09:40.970Z,1.00
2023-01-12T16:12:09.228Z,1.13
2023-01-12T16:14:37.444Z,1.40
2023-01-12T16:17:05.684Z,1.00
2023-01-12T16:19:40.975Z,1.57
2023-01-12T16:22:12.956Z,1.53
2023-01-12T16:24:41.314Z,1.30
2023-01-12T16:27:09.513Z,1.30
2023-01-12T16:29:37.882Z,1.30
2023-01-12T16:32:06.723Z,1.10
2023-01-12T16:34:36.703Z,1.30
2023-01-12T16:37:08.379Z,1.17
2023-01-12T16:39:41.449Z,1.20
2023-01-12T16:42:09.902Z,1.20
2023-01-12T16:44:40.418Z,1.73
2023-01-12T16:47:11.379Z,1.53
2023-01-12T16:49:41.079Z,1.70
2023-01-12T16:52:10.783Z,1.23
2023-01-12T16:54:42.382Z,1.30
2023-01-12T16:57:10.684Z,1.83
2023-01-12T16:59:39.025Z,1.73
2023-01-12T17:02:08.871Z,1.87
2023-01-12T17:04:38.139Z,1.87
2023-01-12T17:07:08.235Z,1.60
2023-01-12T17:09:37.108Z,1.63
2023-01-12T17:12:05.680Z,1.70
2023-01-12T17:14:34.741Z,1.60
2023-01-12T17:17:04.559Z,1.30
2023-01-12T17:19:35.952Z,1.90
2023-01-12T17:22:06.659Z,2.37
2023-01-12T17:24:39.588Z,2.07
2023-01-12T17:27:08.174Z,1.73
2023-01-12T17:29:36.678Z,2.27
2023-01-12T17:32:06.957Z,1.40
2023-01-12T17:34:37.510Z,1.50
2023-01-12T17:37:08.281Z,2.03
2023-01-12T17:39:39.629Z,1.70
2023-01-12T17:42:22.130Z,1.50
2023-01-12T17:44:50.374Z,1.77
2023-01-12T17:47:18.626Z,1.80
2023-01-12T17:49:47.871Z,1.80
2023-01-12T17:52:16.449Z,1.60
2023-01-12T17:54:46.045Z,1.80
2023-01-12T17:57:14.310Z,1.60
2023-01-12T17:59:42.629Z,2.20
2023-01-12T18:02:13.140Z,1.47
2023-01-12T18:04:41.552Z,1.97
2023-01-12T18:07:09.813Z,1.53
2023-01-12T18:09:38.092Z,1.93
2023-01-12T18:12:10.486Z,2.23
2023-01-12T18:14:38.747Z,2.00
2023-01-12T18:17:09.173Z,2.57
2023-01-12T18:19:37.521Z,2.13
2023-01-12T18:22:06.949Z,1.90
2023-01-12T18:24:36.393Z,1.73
2023-01-12T18:27:05.042Z,1.70
2023-01-12T18:29:34.838Z,1.97
2023-01-12T18:32:03.202Z,1.80
2023-01-12T18:34:31.427Z,1.97
2023-01-12T18:36:59.632Z,1.60
2023-01-12T18:39:27.932Z,1.70
2023-01-12T18:42:14.013Z,1.40
2023-01-12T18:44:43.597Z,2.30
2023-01-12T18:47:32.295Z,1.90
2023-01-12T18:50:20.515Z,1.67
2023-01-12T18:53:06.466Z,1.77
2023-01-12T18:55:37.339Z,1.60
2023-01-12T18:58:05.690Z,1.93
2023-01-12T19:00:35.333Z,1.43
2023-01-12T19:03:05.167Z,1.50
2023-01-12T19:05:43.541Z,1.70
2023-01-12T19:08:29.523Z,1.70
2023-01-12T19:11:07.902Z,1.87
2023-01-12T19:13:53.819Z,1.60
2023-01-12T19:16:41.449Z,1.60
2023-01-12T19:19:09.689Z,1.97
2023-01-12T19:21:55.846Z,2.20
2023-01-12T19:24:41.774Z,2.27
2023-01-12T19:27:29.840Z,1.90
2023-01-12T19:29:58.168Z,2.00
2023-01-12T19:32:27.750Z,1.83
2023-01-12T19:35:02.233Z,1.80
2023-01-12T19:37:38.400Z,1.63
2023-01-12T19:40:13.147Z,1.60
2023-01-12T19:42:59.117Z,1.70
2023-01-12T19:45:27.297Z,2.10
2023-01-12T19:47:56.849Z,2.20
2023-01-12T19:50:25.090Z,1.83
2023-01-12T19:52:53.326Z,1.80
2023-01-12T19:55:21.583Z,1.60
2023-01-12T19:57:49.832Z,1.87
2023-01-12T20:00:18.457Z,1.70
2023-01-12T20:02:46.964Z,1.60
2023-01-12T20:05:22.560Z,1.30
2023-01-12T20:07:51.644Z,1.47
2023-01-12T20:10:20.238Z,1.33
2023-01-12T20:12:48.616Z,1.17
2023-01-12T20:15:18.068Z,1.63
2023-01-12T20:17:46.361Z,1.60
2023-01-12T20:20:14.688Z,1.80
2023-01-12T20:22:44.349Z,1.47
2023-01-12T20:25:12.761Z,1.60
2023-01-12T20:27:41.166Z,2.00
2023-01-12T20:30:10.675Z,1.57
2023-01-12T20:32:42.610Z,1.77
2023-01-12T20:35:13.181Z,1.70
2023-01-12T20:37:41.495Z,1.90
2023-01-12T20:40:12.182Z,1.60
2023-01-12T20:42:40.392Z,1.60
2023-01-12T20:45:09.187Z,1.33
2023-01-12T20:47:37.449Z,1.47
2023-01-12T20:50:07.538Z,1.63
2023-01-12T20:52:36.376Z,1.70
2023-01-12T20:55:05.600Z,1.70
2023-01-12T20:57:36.364Z,1.63
2023-01-12T21:00:05.034Z,1.70
2023-01-12T21:02:33.317Z,1.40
2023-01-12T21:05:01.591Z,1.70
2023-01-12T21:07:29.858Z,1.70
2023-01-12T21:09:58.124Z,1.80
2023-01-12T21:12:27.610Z,1.43
2023-01-12T21:14:57.491Z,1.90
2023-01-12T21:17:25.869Z,1.70
2023-01-12T21:19:54.108Z,1.50
2023-01-12T21:22:22.348Z,1.80
2023-01-12T21:24:50.634Z,2.40
2023-01-12T21:27:18.924Z,1.70
2023-01-12T21:29:47.762Z,1.90
2023-01-12T21:32:17.394Z,1.80
2023-01-12T21:34:45.634Z,2.23
2023-01-12T21:37:13.912Z,2.40
2023-01-12T21:39:42.353Z,1.80
2023-01-12T21:42:28.221Z,1.60
2023-01-12T21:44:56.754Z,2.00
2023-01-12T21:47:26.433Z,1.73
2023-01-12T21:49:56.346Z,2.00
2023-01-12T21:52:24.703Z,1.90
2023-01-12T21:54:52.982Z,1.90
2023-01-12T21:57:21.227Z,2.10
2023-01-12T21:59:49.455Z,1.93
2023-01-12T22:02:17.768Z,1.90
2023-01-12T22:04:47.404Z,2.20
2023-01-12T22:07:15.690Z,4.67
2023-01-12T22:09:43.865Z,2.20
2023-01-12T22:12:12.077Z,2.23
2023-01-12T22:14:40.288Z,2.47
2023-01-12T22:17:08.501Z,1.93
2023-01-12T22:19:39.316Z,2.00
2023-01-12T22:22:09.082Z,2.30
2023-01-12T22:24:37.349Z,2.10
2023-01-12T22:27:05.630Z,1.90
2023-01-12T22:29:33.879Z,2.00
2023-01-12T22:32:02.108Z,1.80
2023-01-12T22:34:30.781Z,1.90
2023-01-12T22:36:59.008Z,1.77
2023-01-12T22:39:28.584Z,1.77
2023-01-12T22:41:56.801Z,2.30
2023-01-12T22:44:25.588Z,1.90
2023-01-12T22:46:53.891Z,1.83
2023-01-12T22:49:22.188Z,2.27
2023-01-12T22:51:50.437Z,1.90
2023-01-12T22:54:19.093Z,2.00
2023-01-12T22:56:48.823Z,1.90
2023-01-12T22:59:17.059Z,2.07
2023-01-12T23:01:45.256Z,1.73
2023-01-12T23:04:13.431Z,2.20
2023-01-12T23:06:42.522Z,2.20
2023-01-12T23:09:11.713Z,1.53
2023-01-12T23:11:39.997Z,1.40
2023-01-12T23:14:09.685Z,1.33
2023-01-12T23:16:37.888Z,1.30
2023-01-12T23:19:06.106Z,1.43
2023-01-12T23:21:34.280Z,1.40
2023-01-12T23:24:02.859Z,1.63
2023-01-12T23:26:32.051Z,1.40
2023-01-12T23:29:02.744Z,1.20
2023-01-12T23:31:33.314Z,1.40
2023-01-12T23:34:01.863Z,1.40
2023-01-12T23:36:31.248Z,1.23
2023-01-12T23:39:03.010Z,1.10
2023-01-12T23:41:32.527Z,1.20
2023-01-12T23:44:01.903Z,1.40
2023-01-12T23:46:32.661Z,1.50
2023-01-12T23:49:00.989Z,1.60
2023-01-12T23:51:30.339Z,1.37
2023-01-12T23:53:59.579Z,1.40
2023-01-12T23:56:28.517Z,1.10
2023-01-12T23:58:57.031Z,0.90
